createdAt,value
2022-10-09T00:00:45.564Z,96938.88
2022-10-09T00:03:13.479Z,96946.41
2022-10-09T00:05:40.305Z,96944.94
2022-10-09T00:08:07.060Z,96940.91
2022-10-09T00:10:33.463Z,96938.31
2022-10-09T00:12:59.942Z,96941.28
2022-10-09T00:15:26.365Z,96936.22
2022-10-09T00:17:52.815Z,96947.78
2022-10-09T00:20:19.394Z,96943.22
2022-10-09T00:22:46.060Z,96937.22
2022-10-09T00:25:12.691Z,96939.91
2022-10-09T00:27:39.110Z,96940.69
2022-10-09T00:30:06.083Z,96935.94
2022-10-09T00:32:32.460Z,96940.41
2022-10-09T00:34:58.891Z,96939.91
2022-10-09T00:37:25.311Z,96942.75
2022-10-09T00:39:51.742Z,96946.50
2022-10-09T00:42:18.155Z,96935.94
2022-10-09T00:44:47.540Z,96941.47
2022-10-09T00:47:46.057Z,96946.88
2022-10-09T00:50:26.802Z,96941.56
2022-10-09T00:52:57.351Z,96937.22
2022-10-09T00:55:25.584Z,96943.44
2022-10-09T00:57:54.814Z,96929.03
2022-10-09T01:00:21.969Z,96931.69
2022-10-09T01:02:48.724Z,96929.59
2022-10-09T01:05:15.583Z,96928.03
2022-10-09T01:07:42.146Z,96929.41
2022-10-09T01:10:17.286Z,96930.28
2022-10-09T01:13:20.212Z,96925.34
2022-10-09T01:15:53.533Z,96923.81
2022-10-09T01:18:32.105Z,96928.59
2022-10-09T01:21:14.860Z,96928.34
2022-10-09T01:24:05.174Z,96931.94
2022-10-09T01:26:46.662Z,96934.31
2022-10-09T01:29:14.753Z,96930.34
2022-10-09T01:31:44.041Z,96925.41
2022-10-09T01:34:13.203Z,96932.81
2022-10-09T01:36:40.483Z,96926.31
2022-10-09T01:39:09.255Z,96925.75
2022-10-09T01:41:35.772Z,96917.94
2022-10-09T01:44:02.161Z,96921.50
2022-10-09T01:46:31.787Z,96910.47
2022-10-09T01:49:27.851Z,96930.81
2022-10-09T01:52:01.503Z,96923.19
2022-10-09T01:54:45.554Z,96922.88
2022-10-09T01:57:14.067Z,96921.31
2022-10-09T01:59:44.224Z,96920.03
2022-10-09T02:02:11.659Z,96924.84
2022-10-09T02:04:41.579Z,96920.81
2022-10-09T02:07:08.483Z,96916.06
2022-10-09T02:09:37.230Z,96917.16
2022-10-09T02:12:09.511Z,96914.59
2022-10-09T02:14:36.504Z,96914.00
2022-10-09T02:17:12.078Z,96912.91
2022-10-09T02:19:54.610Z,96910.25
2022-10-09T02:22:30.475Z,96912.03
2022-10-09T02:24:59.627Z,96904.91
2022-10-09T02:27:27.386Z,96909.66
2022-10-09T02:29:54.664Z,96909.16
2022-10-09T02:32:22.763Z,96908.06
2022-10-09T02:34:49.129Z,96908.59
2022-10-09T02:37:15.673Z,96908.00
2022-10-09T02:39:43.026Z,96910.66
2022-10-09T02:42:10.083Z,96905.53
2022-10-09T02:44:36.645Z,96906.13
2022-10-09T02:47:03.057Z,96899.81
2022-10-09T02:49:29.466Z,96909.66
2022-10-09T02:51:55.850Z,96901.78
2022-10-09T02:54:22.285Z,96900.66
2022-10-09T02:56:48.743Z,96905.69
2022-10-09T02:59:15.141Z,96900.66
2022-10-09T03:01:41.634Z,96892.69
2022-10-09T03:04:08.139Z,96894.25
2022-10-09T03:06:34.539Z,96899.00
2022-10-09T03:09:01.067Z,96895.53
2022-10-09T03:11:27.608Z,96902.16
2022-10-09T03:13:54.498Z,96895.84
2022-10-09T03:16:24.210Z,96894.84
2022-10-09T03:18:51.634Z,96903.41
2022-10-09T03:21:21.022Z,96903.69
2022-10-09T03:23:49.693Z,96899.19
2022-10-09T03:26:19.061Z,96896.59
2022-10-09T03:28:47.942Z,96895.00
2022-10-09T03:31:39.820Z,96896.19
2022-10-09T03:34:05.888Z,96897.38
2022-10-09T03:36:32.348Z,96894.06
2022-10-09T03:38:58.756Z,96895.50
2022-10-09T03:41:25.189Z,96895.72
2022-10-09T03:43:51.584Z,96896.00
2022-10-09T03:46:18.018Z,96902.91
2022-10-09T03:48:44.434Z,96909.69
2022-10-09T03:51:10.871Z,96909.44
2022-10-09T03:53:37.345Z,96902.50
2022-10-09T03:56:03.841Z,96902.09
2022-10-09T03:58:30.303Z,96902.13
2022-10-09T04:00:56.820Z,96905.00
2022-10-09T04:03:23.323Z,96907.19
2022-10-09T04:05:49.992Z,96900.47
2022-10-09T04:08:16.405Z,96904.28
2022-10-09T04:10:42.784Z,96899.88
2022-10-09T04:13:09.199Z,96896.13
2022-10-09T04:15:36.624Z,96904.03
2022-10-09T04:18:03.773Z,96900.66
2022-10-09T04:20:30.239Z,96903.34
2022-10-09T04:22:56.621Z,96905.50
2022-10-09T04:25:23.060Z,96900.16
2022-10-09T04:27:49.441Z,96898.00
2022-10-09T04:30:16.048Z,96891.00
2022-10-09T04:32:42.486Z,96888.44
2022-10-09T04:35:09.078Z,96898.50
2022-10-09T04:37:36.841Z,96891.19
2022-10-09T04:40:04.249Z,96900.75
2022-10-09T04:42:30.714Z,96897.81
2022-10-09T04:44:57.096Z,96899.19
2022-10-09T04:47:23.554Z,96903.69
2022-10-09T04:49:49.977Z,96901.34
2022-10-09T04:52:16.340Z,96903.50
2022-10-09T04:54:42.841Z,96909.84
2022-10-09T04:57:09.232Z,96902.50
2022-10-09T04:59:35.643Z,96898.69
2022-10-09T05:02:02.195Z,96913.75
2022-10-09T05:04:28.735Z,96918.78
2022-10-09T05:06:55.111Z,96924.28
2022-10-09T05:09:21.494Z,96918.56
2022-10-09T05:11:47.921Z,96918.47
2022-10-09T05:14:14.415Z,96921.38
2022-10-09T05:17:01.321Z,96916.91
2022-10-09T05:19:27.300Z,96915.53
2022-10-09T05:21:54.279Z,96923.81
2022-10-09T05:24:20.867Z,96921.66
2022-10-09T05:26:47.259Z,96922.75
2022-10-09T05:29:13.649Z,96921.66
2022-10-09T05:31:40.263Z,96929.97
2022-10-09T05:34:06.683Z,96928.94
2022-10-09T05:36:33.095Z,96923.81
2022-10-09T05:39:01.160Z,96922.75
2022-10-09T05:41:29.521Z,96930.31
2022-10-09T05:44:01.525Z,96926.88
2022-10-09T05:46:29.765Z,96927.94
2022-10-09T05:49:01.095Z,96934.06
2022-10-09T05:51:29.949Z,96924.78
2022-10-09T05:53:57.479Z,96928.75
2022-10-09T05:56:26.693Z,96934.84
2022-10-09T05:59:15.149Z,96933.78
2022-10-09T06:01:44.567Z,96935.66
2022-10-09T06:04:29.180Z,96924.19
2022-10-09T06:06:55.555Z,96929.16
2022-10-09T06:09:24.242Z,96934.63
2022-10-09T06:11:51.255Z,96943.13
2022-10-09T06:14:18.563Z,96944.31
2022-10-09T06:16:45.757Z,96952.81
2022-10-09T06:19:14.147Z,96957.13
2022-10-09T06:21:40.761Z,96958.91
2022-10-09T06:24:07.922Z,96964.44
2022-10-09T06:26:34.907Z,96973.03
2022-10-09T06:29:02.162Z,96975.09
2022-10-09T06:31:30.855Z,96977.25
2022-10-09T06:34:00.339Z,96973.75
2022-10-09T06:36:29.324Z,96970.56
2022-10-09T06:38:56.083Z,96967.69
2022-10-09T06:41:24.587Z,96971.09
2022-10-09T06:43:56.268Z,96979.16
2022-10-09T06:46:25.644Z,96981.75
2022-10-09T06:48:52.428Z,96988.31
2022-10-09T06:51:21.305Z,96993.63
2022-10-09T06:53:50.018Z,96998.16
2022-10-09T06:56:18.262Z,97001.91
2022-10-09T06:58:45.185Z,97001.31
2022-10-09T07:01:16.702Z,96998.38
2022-10-09T07:03:46.451Z,97002.59
2022-10-09T07:06:24.891Z,97011.97
2022-10-09T07:08:54.049Z,97020.47
2022-10-09T07:11:23.709Z,97013.56
2022-10-09T07:13:55.505Z,97015.44
2022-10-09T07:16:30.247Z,97023.13
2022-10-09T07:18:57.972Z,97014.09
2022-10-09T07:21:24.366Z,97017.81
2022-10-09T07:23:50.869Z,97019.75
2022-10-09T07:26:25.963Z,97025.59
2022-10-09T07:28:53.419Z,97016.75
2022-10-09T07:31:20.331Z,97013.00
2022-10-09T07:33:48.195Z,97021.13
2022-10-09T07:36:14.645Z,97018.59
2022-10-09T07:38:41.234Z,97027.69
2022-10-09T07:41:12.636Z,97029.69
2022-10-09T07:43:40.921Z,97029.13
2022-10-09T07:46:11.787Z,97036.53
2022-10-09T07:48:38.625Z,97042.81
2022-10-09T07:51:21.047Z,97058.56
2022-10-09T07:53:48.238Z,97067.00
2022-10-09T07:56:20.108Z,97087.72
2022-10-09T07:58:53.800Z,97090.84
2022-10-09T08:01:21.372Z,97084.41
2022-10-09T08:03:49.058Z,97087.38
2022-10-09T08:06:16.458Z,97104.00
2022-10-09T08:08:43.271Z,97109.41
2022-10-09T08:11:14.548Z,97106.44
2022-10-09T08:13:42.422Z,97107.53
2022-10-09T08:16:09.293Z,97124.13
2022-10-09T08:18:35.982Z,97122.53
2022-10-09T08:21:06.519Z,97117.88
2022-10-09T08:23:33.054Z,97109.63
2022-10-09T08:25:59.735Z,97117.09
2022-10-09T08:28:26.592Z,97120.16
2022-10-09T08:30:53.314Z,97124.13
2022-10-09T08:33:21.934Z,97123.19
2022-10-09T08:35:49.900Z,97119.75
2022-10-09T08:38:37.523Z,97112.84
2022-10-09T08:41:26.273Z,97116.03
2022-10-09T08:44:10.490Z,97118.28
2022-10-09T08:46:49.565Z,97136.22
2022-10-09T08:49:29.929Z,97133.81
2022-10-09T08:51:59.516Z,97130.47
2022-10-09T08:54:38.195Z,97125.03
2022-10-09T08:57:14.483Z,97129.78
2022-10-09T08:59:41.537Z,97134.53
2022-10-09T09:02:41.087Z,97128.72
2022-10-09T09:05:30.104Z,97127.09
2022-10-09T09:08:12.003Z,97115.94
2022-10-09T09:10:43.242Z,97120.28
2022-10-09T09:14:07.980Z,97121.34
2022-10-09T09:16:48.559Z,97113.91
2022-10-09T09:19:32.432Z,97119.53
2022-10-09T09:21:59.412Z,97122.41
2022-10-09T09:24:56.543Z,97120.91
2022-10-09T09:27:29.936Z,97128.31
2022-10-09T09:30:04.655Z,97131.50
2022-10-09T09:32:33.039Z,97125.09
2022-10-09T09:35:28.951Z,97128.59
2022-10-09T09:37:55.681Z,97124.09
2022-10-09T09:40:46.568Z,97118.50
2022-10-09T09:43:21.900Z,97115.94
2022-10-09T09:45:51.976Z,97118.97
2022-10-09T09:48:35.300Z,97121.75
2022-10-09T09:51:23.609Z,97126.84
2022-10-09T09:54:01.198Z,97135.91
2022-10-09T09:57:10.612Z,97140.78
2022-10-09T09:59:37.777Z,97148.94
2022-10-09T10:02:18.746Z,97149.94
2022-10-09T10:04:52.486Z,97154.97
2022-10-09T10:07:38.632Z,97158.66
2022-10-09T10:10:23.984Z,97162.38
2022-10-09T10:12:51.795Z,97146.91
2022-10-09T10:15:30.152Z,97152.75
2022-10-09T10:18:01.861Z,97144.69
2022-10-09T10:20:31.038Z,97141.00
2022-10-09T10:22:58.550Z,97148.31
2022-10-09T10:25:31.139Z,97151.88
2022-10-09T10:28:12.217Z,97151.09
2022-10-09T10:30:40.425Z,97147.59
2022-10-09T10:33:22.972Z,97136.31
2022-10-09T10:35:52.886Z,97134.94
2022-10-09T10:38:31.747Z,97123.56
2022-10-09T10:41:21.201Z,97122.19
2022-10-09T10:43:59.351Z,97128.50
2022-10-09T10:46:40.056Z,97122.31
2022-10-09T10:49:11.773Z,97115.16
2022-10-09T10:51:59.011Z,97127.19
2022-10-09T10:54:49.567Z,97123.44
2022-10-09T10:57:37.522Z,97117.06
2022-10-09T11:00:10.962Z,97121.41
2022-10-09T11:02:58.723Z,97121.84
2022-10-09T11:05:41.173Z,97123.50
2022-10-09T11:08:21.135Z,97119.25
2022-10-09T11:11:21.207Z,97118.69
2022-10-09T11:13:59.307Z,97115.72
2022-10-09T11:16:55.261Z,97116.31
2022-10-09T11:19:45.100Z,97114.72
2022-10-09T11:22:25.427Z,97114.28
2022-10-09T11:25:04.132Z,97112.91
2022-10-09T11:27:42.836Z,97115.31
2022-10-09T11:30:11.811Z,97113.47
2022-10-09T11:32:59.496Z,97111.38
2022-10-09T11:35:34.184Z,97105.91
2022-10-09T11:38:24.055Z,97101.34
2022-10-09T11:40:51.630Z,97095.31
2022-10-09T11:43:27.117Z,97099.06
2022-10-09T11:46:04.117Z,97098.44
2022-10-09T11:48:35.558Z,97095.63
2022-10-09T11:51:12.444Z,97095.69
2022-10-09T11:53:40.076Z,97094.84
2022-10-09T11:56:18.932Z,97093.97
2022-10-09T11:58:57.559Z,97093.75
2022-10-09T12:01:47.591Z,97092.44
2022-10-09T12:04:13.977Z,97089.28
2022-10-09T12:06:55.859Z,97101.69
2022-10-09T12:09:32.755Z,97094.63
2022-10-09T12:12:03.458Z,97087.22
2022-10-09T12:14:30.797Z,97083.41
2022-10-09T12:16:58.747Z,97085.00
2022-10-09T12:19:45.487Z,97078.09
2022-10-09T12:22:30.426Z,97079.00
2022-10-09T12:25:03.487Z,97072.03
2022-10-09T12:27:52.261Z,97073.59
2022-10-09T12:30:21.871Z,97068.88
2022-10-09T12:32:55.278Z,97067.00
2022-10-09T12:35:27.314Z,97070.81
2022-10-09T12:37:53.792Z,97064.84
2022-10-09T12:40:27.317Z,97057.50
2022-10-09T12:42:55.627Z,97058.69
2022-10-09T12:45:25.647Z,97057.09
2022-10-09T12:47:54.433Z,97053.22
2022-10-09T12:50:24.136Z,97057.50
2022-10-09T12:52:54.190Z,97047.75
2022-10-09T12:55:28.165Z,97051.06
2022-10-09T12:58:06.791Z,97055.09
2022-10-09T13:00:34.981Z,97049.56
2022-10-09T13:03:01.967Z,97050.09
2022-10-09T13:05:42.527Z,97045.22
2022-10-09T13:08:30.133Z,97045.22
2022-10-09T13:11:20.409Z,97040.41
2022-10-09T13:13:51.432Z,97042.47
2022-10-09T13:16:18.268Z,97041.56
2022-10-09T13:18:56.378Z,97040.03
2022-10-09T13:21:35.236Z,97035.13
2022-10-09T13:24:13.306Z,97040.88
2022-10-09T13:26:42.584Z,97033.97
2022-10-09T13:29:09.376Z,97027.88
2022-10-09T13:31:36.964Z,97023.72
2022-10-09T13:34:14.136Z,97025.53
2022-10-09T13:36:41.163Z,97035.84
2022-10-09T13:39:13.649Z,97030.81
2022-10-09T13:41:41.985Z,97029.72
2022-10-09T13:44:11.896Z,97021.72
2022-10-09T13:46:39.166Z,97020.84
2022-10-09T13:49:05.692Z,97021.66
2022-10-09T13:51:32.748Z,97017.50
2022-10-09T13:53:59.324Z,97026.56
2022-10-09T13:56:26.330Z,97024.91
2022-10-09T13:58:53.459Z,97027.56
2022-10-09T14:01:20.112Z,97030.34
2022-10-09T14:03:46.760Z,97024.34
2022-10-09T14:06:13.390Z,97024.31
2022-10-09T14:08:39.965Z,97018.41
2022-10-09T14:11:06.621Z,97015.84
2022-10-09T14:13:33.448Z,97021.59
2022-10-09T14:16:03.190Z,97015.91
2022-10-09T14:18:29.755Z,97010.72
2022-10-09T14:20:56.282Z,97010.09
2022-10-09T14:23:22.860Z,97004.19
2022-10-09T14:25:49.505Z,96993.59
2022-10-09T14:28:16.089Z,96999.22
2022-10-09T14:30:43.819Z,96989.72
2022-10-09T14:33:10.461Z,96995.31
2022-10-09T14:35:37.026Z,96998.19
2022-10-09T14:38:03.543Z,96989.47
2022-10-09T14:40:30.013Z,96991.38
2022-10-09T14:42:56.514Z,96995.63
2022-10-09T14:45:22.970Z,96988.78
2022-10-09T14:47:49.512Z,96985.97
2022-10-09T14:50:16.012Z,96990.28
2022-10-09T14:52:42.603Z,96989.28
2022-10-09T14:55:09.354Z,96987.34
2022-10-09T14:57:35.969Z,96988.44
2022-10-09T15:00:04.739Z,96991.66
2022-10-09T15:02:31.390Z,96994.97
2022-10-09T15:04:58.018Z,96990.88
2022-10-09T15:07:27.883Z,96995.97
2022-10-09T15:09:57.811Z,96995.75
2022-10-09T15:12:24.365Z,97000.28
2022-10-09T15:14:50.874Z,96993.97
2022-10-09T15:17:17.437Z,96993.38
2022-10-09T15:19:43.898Z,96987.84
2022-10-09T15:22:10.373Z,96988.13
2022-10-09T15:24:36.970Z,96977.19
2022-10-09T15:27:03.816Z,96981.00
2022-10-09T15:29:30.259Z,96980.59
2022-10-09T15:31:57.884Z,96973.75
2022-10-09T15:34:24.707Z,96967.44
2022-10-09T15:36:51.229Z,96969.06
2022-10-09T15:39:17.695Z,96967.34
2022-10-09T15:41:44.494Z,96963.00
2022-10-09T15:44:19.318Z,96963.16
2022-10-09T15:46:47.272Z,96961.31
2022-10-09T15:49:14.097Z,96966.56
2022-10-09T15:51:40.905Z,96958.09
2022-10-09T15:54:07.560Z,96958.94
2022-10-09T15:56:39.465Z,96956.97
2022-10-09T15:59:06.930Z,96963.09
2022-10-09T16:01:33.432Z,96952.59
2022-10-09T16:03:59.995Z,96958.72
2022-10-09T16:06:26.540Z,96961.38
2022-10-09T16:08:58.428Z,96956.00
2022-10-09T16:11:26.848Z,96960.50
2022-10-09T16:13:54.629Z,96947.19
2022-10-09T16:16:25.068Z,96953.56
2022-10-09T16:18:51.789Z,96951.16
2022-10-09T16:21:22.919Z,96948.78
2022-10-09T16:23:53.275Z,96947.72
2022-10-09T16:26:22.682Z,96948.22
2022-10-09T16:28:51.783Z,96958.28
2022-10-09T16:31:25.971Z,96959.44
2022-10-09T16:33:53.282Z,96967.84
2022-10-09T16:36:19.955Z,96961.50
2022-10-09T16:38:47.036Z,96956.34
2022-10-09T16:41:18.080Z,96966.34
2022-10-09T16:43:46.292Z,96970.31
2022-10-09T16:46:17.621Z,96968.50
2022-10-09T16:48:44.219Z,96969.75
2022-10-09T16:51:16.635Z,96972.88
2022-10-09T16:53:43.167Z,96979.25
2022-10-09T16:56:12.786Z,96973.72
2022-10-09T16:58:41.467Z,96968.19
2022-10-09T17:01:10.094Z,96979.13
2022-10-09T17:03:40.543Z,96984.22
2022-10-09T17:06:15.889Z,96985.78
2022-10-09T17:08:42.358Z,96980.25
2022-10-09T17:11:10.782Z,96987.03
2022-10-09T17:13:37.672Z,96993.03
2022-10-09T17:16:06.797Z,96996.44
2022-10-09T17:18:34.066Z,96997.00
2022-10-09T17:21:05.554Z,97000.19
2022-10-09T17:23:32.720Z,97000.28
2022-10-09T17:26:00.400Z,96999.81
2022-10-09T17:28:27.060Z,97001.66
2022-10-09T17:30:53.513Z,97001.44
2022-10-09T17:33:20.173Z,96999.03
2022-10-09T17:35:47.010Z,96997.84
2022-10-09T17:38:13.479Z,97001.06
2022-10-09T17:40:40.984Z,96997.69
2022-10-09T17:43:08.371Z,97001.19
2022-10-09T17:45:39.452Z,97002.31
2022-10-09T17:48:06.262Z,96995.44
2022-10-09T17:50:33.194Z,96996.66
2022-10-09T17:52:59.879Z,97000.75
2022-10-09T17:55:26.721Z,96996.44
2022-10-09T17:57:54.426Z,97001.75
2022-10-09T18:00:22.043Z,96998.63
2022-10-09T18:02:49.249Z,96999.72
2022-10-09T18:05:15.805Z,97006.88
2022-10-09T18:07:42.248Z,97003.75
2022-10-09T18:10:08.779Z,97010.59
2022-10-09T18:12:35.198Z,97004.81
2022-10-09T18:15:02.792Z,97008.06
2022-10-09T18:17:31.642Z,97006.63
2022-10-09T18:19:58.091Z,97016.72
2022-10-09T18:22:24.605Z,97007.25
2022-10-09T18:24:51.338Z,97009.78
2022-10-09T18:27:17.904Z,97010.81
2022-10-09T18:29:44.354Z,97010.31
2022-10-09T18:32:10.857Z,97011.41
2022-10-09T18:34:39.277Z,97010.00
2022-10-09T18:37:06.478Z,97014.53
2022-10-09T18:39:32.952Z,97010.34
2022-10-09T18:42:02.030Z,97004.00
2022-10-09T18:44:31.531Z,97004.38
2022-10-09T18:46:59.303Z,97007.19
2022-10-09T18:49:29.884Z,97004.53
2022-10-09T18:51:58.763Z,97010.94
2022-10-09T18:54:26.454Z,97006.72
2022-10-09T18:56:53.554Z,97017.72
2022-10-09T18:59:22.125Z,97006.81
2022-10-09T19:01:48.953Z,97002.28
2022-10-09T19:04:15.520Z,97005.09
2022-10-09T19:06:42.081Z,97002.94
2022-10-09T19:09:08.526Z,97000.25
2022-10-09T19:11:35.243Z,97008.22
2022-10-09T19:14:02.232Z,97005.66
2022-10-09T19:16:30.519Z,97013.19
2022-10-09T19:18:57.411Z,96999.31
2022-10-09T19:21:24.246Z,97009.91
2022-10-09T19:23:52.432Z,97005.94
2022-10-09T19:26:19.858Z,97012.09
2022-10-09T19:28:46.774Z,97013.97
2022-10-09T19:31:14.318Z,97002.53
2022-10-09T19:33:42.575Z,97004.81
2022-10-09T19:36:12.541Z,97005.84
2022-10-09T19:38:39.720Z,97008.13
2022-10-09T19:41:08.959Z,97007.66
2022-10-09T19:43:36.426Z,97014.38
2022-10-09T19:46:11.373Z,97020.13
2022-10-09T19:48:38.046Z,97018.44
2022-10-09T19:51:06.886Z,97015.22
2022-10-09T19:53:33.600Z,97022.63
2022-10-09T19:56:00.527Z,97015.22
2022-10-09T19:58:27.011Z,97025.88
2022-10-09T20:00:53.471Z,97021.44
2022-10-09T20:03:20.276Z,97028.09
2022-10-09T20:05:46.758Z,97034.97
2022-10-09T20:08:13.191Z,97035.50
2022-10-09T20:10:39.621Z,97018.66
2022-10-09T20:13:06.132Z,97024.75
2022-10-09T20:15:33.010Z,97035.84
2022-10-09T20:17:59.430Z,97035.88
2022-10-09T20:20:27.024Z,97035.50
2022-10-09T20:22:54.178Z,97041.34
2022-10-09T20:25:20.758Z,97028.81
2022-10-09T20:27:47.235Z,97030.66
2022-10-09T20:30:13.797Z,97029.13
2022-10-09T20:32:40.445Z,97039.72
2022-10-09T20:35:07.712Z,97031.75
2022-10-09T20:37:35.055Z,97028.53
2022-10-09T20:40:01.750Z,97027.50
2022-10-09T20:42:28.169Z,97031.97
2022-10-09T20:44:54.682Z,97036.03
2022-10-09T20:47:21.131Z,97034.94
2022-10-09T20:49:48.506Z,97032.84
2022-10-09T20:52:15.019Z,97030.19
2022-10-09T20:54:41.468Z,97041.50
2022-10-09T20:57:08.079Z,97029.00
2022-10-09T20:59:34.536Z,97034.94
2022-10-09T21:02:01.089Z,97037.63
2022-10-09T21:04:27.556Z,97033.63
2022-10-09T21:06:54.058Z,97041.25
2022-10-09T21:09:20.643Z,97040.25
2022-10-09T21:11:47.301Z,97038.19
2022-10-09T21:14:13.990Z,97045.63
2022-10-09T21:16:40.714Z,97046.69
2022-10-09T21:19:07.669Z,97046.97
2022-10-09T21:21:34.271Z,97044.06
2022-10-09T21:24:01.528Z,97042.91
2022-10-09T21:26:29.693Z,97041.22
2022-10-09T21:28:59.626Z,97043.16
2022-10-09T21:31:29.317Z,97042.66
2022-10-09T21:33:57.152Z,97043.47
2022-10-09T21:37:19.802Z,97036.03
2022-10-09T21:39:36.411Z,97037.94
2022-10-09T21:42:03.013Z,97043.00
2022-10-09T21:44:30.061Z,97047.03
2022-10-09T21:46:56.603Z,97045.09
2022-10-09T21:49:26.107Z,97046.69
2022-10-09T21:51:53.489Z,97055.75
2022-10-09T21:54:20.937Z,97055.22
2022-10-09T21:56:47.725Z,97053.59
2022-10-09T21:59:14.255Z,97053.13
2022-10-09T22:01:40.731Z,97051.31
2022-10-09T22:04:07.358Z,97053.69
2022-10-09T22:06:33.863Z,97057.66
2022-10-09T22:09:00.297Z,97053.03
2022-10-09T22:11:26.802Z,97054.22
2022-10-09T22:13:55.521Z,97046.44
2022-10-09T22:16:22.064Z,97045.41
2022-10-09T22:18:48.572Z,97049.38
2022-10-09T22:21:15.710Z,97060.53
2022-10-09T22:23:43.136Z,97061.06
2022-10-09T22:26:16.682Z,97067.91
2022-10-09T22:28:43.814Z,97057.63
2022-10-09T22:31:15.300Z,97060.03
2022-10-09T22:33:42.689Z,97061.53
2022-10-09T22:36:13.703Z,97058.53
2022-10-09T22:38:41.263Z,97058.91
2022-10-09T22:41:18.479Z,97060.84
2022-10-09T22:43:46.943Z,97058.97
2022-10-09T22:46:17.517Z,97062.38
2022-10-09T22:48:44.878Z,97055.75
2022-10-09T22:51:14.048Z,97060.59
2022-10-09T22:53:40.782Z,97060.09
2022-10-09T22:56:09.863Z,97053.13
2022-10-09T22:58:36.361Z,97056.56
2022-10-09T23:01:09.653Z,97048.84
2022-10-09T23:03:36.143Z,97052.00
2022-10-09T23:06:14.998Z,97047.97
2022-10-09T23:08:43.327Z,97049.06
2022-10-09T23:11:10.573Z,97043.53
2022-10-09T23:13:37.898Z,97050.47
2022-10-09T23:16:06.657Z,97051.56
2022-10-09T23:18:33.889Z,97039.88
2022-10-09T23:21:09.250Z,97044.63
2022-10-09T23:23:35.888Z,97044.06
2022-10-09T23:26:12.100Z,97041.34
2022-10-09T23:28:38.606Z,97047.50
2022-10-09T23:31:08.208Z,97043.53
2022-10-09T23:33:35.591Z,97041.91
2022-10-09T23:36:03.258Z,97044.06
2022-10-09T23:38:29.880Z,97048.06
2022-10-09T23:41:10.780Z,97045.22
2022-10-09T23:43:39.331Z,97049.47
2022-10-09T23:46:08.133Z,97047.84
2022-10-09T23:48:35.134Z,97046.28
2022-10-09T23:51:02.261Z,97042.00
2022-10-09T23:53:28.796Z,97048.13
2022-10-09T23:55:55.243Z,97047.84
2022-10-09T23:58:22.624Z,97041.22
